AMX177 KLAX-MMGL
Flight info
| Callsign | AMX177 |
|---|---|
| Flight time | N/A |
| Altitude | 36000 |
| Route | PNDAH2 OTAYY DCT TIJ UT4 ANTEL DCT SOUSY DCT AMULA AMULA1B |
| Aircraft | B737/M-SDE2E3FGHIRWXY/LB1 |
Departure
| Time | 2026-04-20 23:30 |
|---|---|
| Airport | Los Angeles International Airport (KLAX) |
Arrival
| Time | N/A |
|---|---|
| Airport | Guadalajara International Airport (MMGL) |
| Time | Latitude | Longitude | Altitude | Speed | Heading |
|---|---|---|---|---|---|
| 2026-04-20 22:53 | 33.94673 | -118.40334 | 120 ft | 0 kts | 263° |
| 2026-04-20 22:53 | 33.94673 | -118.40333 | 124 ft | 0 kts | 263° |
| 2026-04-20 23:07 | 33.94673 | -118.40332 | 124 ft | 0 kts | 263° |
| 2026-04-20 23:12 | 33.94675 | -118.40315 | 120 ft | 4 kts | 267° |
| 2026-04-20 23:13 | 33.94674 | -118.40283 | 122 ft | 4 kts | 282° |
| 2026-04-20 23:13 | 33.94665 | -118.40254 | 121 ft | 4 kts | 319° |
| 2026-04-20 23:13 | 33.94651 | -118.40246 | 123 ft | 1 kts | 353° |
| 2026-04-20 23:13 | 33.94649 | -118.40245 | 123 ft | 2 kts | 353° |
| 2026-04-20 23:15 | 33.94648 | -118.40245 | 123 ft | 0 kts | 353° |
| 2026-04-20 23:16 | 33.94652 | -118.40246 | 123 ft | 2 kts | 353° |
| 2026-04-20 23:16 | 33.94689 | -118.40251 | 121 ft | 8 kts | 353° |
| 2026-04-20 23:16 | 33.94762 | -118.40262 | 123 ft | 12 kts | 353° |
| 2026-04-20 23:17 | 33.94815 | -118.40317 | 121 ft | 12 kts | 259° |
| 2026-04-20 23:17 | 33.94801 | -118.40413 | 122 ft | 11 kts | 264° |
| 2026-04-20 23:17 | 33.94793 | -118.40505 | 124 ft | 11 kts | 264° |
| 2026-04-20 23:17 | 33.94784 | -118.40597 | 124 ft | 11 kts | 263° |
| 2026-04-20 23:18 | 33.94774 | -118.40691 | 122 ft | 12 kts | 263° |
| 2026-04-20 23:18 | 33.94763 | -118.40796 | 121 ft | 13 kts | 263° |
| 2026-04-20 23:18 | 33.94751 | -118.40910 | 124 ft | 14 kts | 263° |
| 2026-04-20 23:18 | 33.94738 | -118.41031 | 124 ft | 15 kts | 263° |
| 2026-04-20 23:19 | 33.94724 | -118.41157 | 124 ft | 15 kts | 258° |
| 2026-04-20 23:19 | 33.94697 | -118.41276 | 123 ft | 14 kts | 256° |
| 2026-04-20 23:19 | 33.94673 | -118.41366 | 119 ft | 10 kts | 225° |
| 2026-04-20 23:19 | 33.94607 | -118.41372 | 122 ft | 10 kts | 173° |
| 2026-04-20 23:20 | 33.94542 | -118.41362 | 122 ft | 9 kts | 173° |
| 2026-04-20 23:20 | 33.94478 | -118.41352 | 122 ft | 9 kts | 173° |
| 2026-04-20 23:20 | 33.94413 | -118.41343 | 122 ft | 10 kts | 173° |
| 2026-04-20 23:20 | 33.94341 | -118.41332 | 123 ft | 11 kts | 173° |
| 2026-04-20 23:21 | 33.94256 | -118.41320 | 122 ft | 13 kts | 173° |
| 2026-04-20 23:21 | 33.94162 | -118.41307 | 123 ft | 14 kts | 173° |
| 2026-04-20 23:21 | 33.94060 | -118.41292 | 123 ft | 15 kts | 173° |
| 2026-04-20 23:21 | 33.93953 | -118.41275 | 122 ft | 16 kts | 173° |
| 2026-04-20 23:22 | 33.93841 | -118.41258 | 122 ft | 16 kts | 173° |
| 2026-04-20 23:22 | 33.93784 | -118.41251 | 122 ft | 4 kts | 173° |
| 2026-04-20 23:22 | 33.93761 | -118.41239 | 123 ft | 4 kts | 137° |
| 2026-04-20 23:22 | 33.93758 | -118.41173 | 125 ft | 12 kts | 83° |
| 2026-04-20 23:23 | 33.93771 | -118.41051 | 125 ft | 16 kts | 83° |
| 2026-04-20 23:23 | 33.93786 | -118.40912 | 125 ft | 18 kts | 83° |
| 2026-04-20 23:23 | 33.93801 | -118.40759 | 125 ft | 19 kts | 83° |
| 2026-04-20 23:23 | 33.93818 | -118.40595 | 125 ft | 21 kts | 83° |
| 2026-04-20 23:24 | 33.93836 | -118.40418 | 122 ft | 22 kts | 83° |
| 2026-04-20 23:24 | 33.93855 | -118.40228 | 122 ft | 23 kts | 83° |
| 2026-04-20 23:24 | 33.93875 | -118.40031 | 125 ft | 24 kts | 82° |
| 2026-04-20 23:24 | 33.93897 | -118.39830 | 120 ft | 24 kts | 82° |
| 2026-04-20 23:25 | 33.93918 | -118.39639 | 125 ft | 23 kts | 82° |
| 2026-04-20 23:25 | 33.93938 | -118.39456 | 121 ft | 22 kts | 82° |
| 2026-04-20 23:25 | 33.93942 | -118.39413 | 121 ft | 0 kts | 82° |
| 2026-04-20 23:25 | 33.93944 | -118.39395 | 125 ft | 9 kts | 86° |
| 2026-04-20 23:26 | 33.93954 | -118.39236 | 125 ft | 25 kts | 85° |
| 2026-04-20 23:26 | 33.93975 | -118.39036 | 124 ft | 23 kts | 80° |
| 2026-04-20 23:26 | 33.93996 | -118.38847 | 124 ft | 22 kts | 83° |
| 2026-04-20 23:26 | 33.94014 | -118.38663 | 123 ft | 22 kts | 83° |
| 2026-04-20 23:27 | 33.94033 | -118.38484 | 124 ft | 21 kts | 83° |
| 2026-04-20 23:27 | 33.94043 | -118.38365 | 122 ft | 8 kts | 85° |
| 2026-04-20 23:27 | 33.94044 | -118.38359 | 123 ft | 0 kts | 87° |
| 2026-04-20 23:28 | 33.94048 | -118.38331 | 124 ft | 8 kts | 79° |
| 2026-04-20 23:28 | 33.94063 | -118.38208 | 124 ft | 20 kts | 82° |
| 2026-04-20 23:28 | 33.94079 | -118.38058 | 124 ft | 6 kts | 85° |
| 2026-04-20 23:28 | 33.94066 | -118.38014 | 122 ft | 6 kts | 134° |
| 2026-04-20 23:29 | 33.94029 | -118.37998 | 123 ft | 6 kts | 171° |
| 2026-04-20 23:29 | 33.93987 | -118.38016 | 123 ft | 8 kts | 244° |
| 2026-04-20 23:29 | 33.93969 | -118.38152 | 124 ft | 44 kts | 262° |
| 2026-04-20 23:29 | 33.93900 | -118.38828 | 124 ft | 116 kts | 263° |
| 2026-04-20 23:30 | 33.93782 | -118.40039 | 164 ft | 171 kts | 264° |
| 2026-04-20 23:30 | 33.93616 | -118.41618 | 374 ft | 209 kts | 262° |
| 2026-04-20 23:30 | 33.93394 | -118.43468 | 697 ft | 237 kts | 261° |
| 2026-04-20 23:30 | 33.93094 | -118.45564 | 874 ft | 268 kts | 259° |
| 2026-04-20 23:31 | 33.92604 | -118.47658 | 1421 ft | 239 kts | 240° |
| 2026-04-20 23:31 | 33.91527 | -118.49009 | 2290 ft | 221 kts | 223° |
| 2026-04-20 23:31 | 33.90439 | -118.50262 | 3270 ft | 211 kts | 226° |
| 2026-04-20 23:31 | 33.89455 | -118.51534 | 4148 ft | 206 kts | 227° |
| 2026-04-20 23:32 | 33.88475 | -118.52860 | 4674 ft | 222 kts | 228° |
| 2026-04-20 23:32 | 33.87405 | -118.54342 | 5016 ft | 249 kts | 227° |
| 2026-04-20 23:32 | 33.86043 | -118.55755 | 4983 ft | 262 kts | 203° |
| 2026-04-20 23:32 | 33.84269 | -118.56050 | 5014 ft | 263 kts | 171° |
| 2026-04-20 23:33 | 33.82477 | -118.55564 | 5080 ft | 262 kts | 168° |
| 2026-04-20 23:33 | 33.80710 | -118.55072 | 5352 ft | 262 kts | 168° |
| 2026-04-20 23:33 | 33.78928 | -118.54579 | 5729 ft | 265 kts | 168° |
| 2026-04-20 23:33 | 33.77127 | -118.54085 | 6103 ft | 265 kts | 168° |
| 2026-04-20 23:34 | 33.75329 | -118.53597 | 6506 ft | 276 kts | 168° |
| 2026-04-20 23:34 | 33.73406 | -118.53078 | 6885 ft | 285 kts | 168° |
| 2026-04-20 23:34 | 33.71459 | -118.52535 | 7243 ft | 290 kts | 164° |
| 2026-04-20 23:34 | 33.69698 | -118.51364 | 7568 ft | 295 kts | 136° |
| 2026-04-20 23:35 | 33.68468 | -118.49384 | 7982 ft | 298 kts | 124° |
| 2026-04-20 23:35 | 33.66536 | -118.44947 | 8715 ft | 302 kts | 119° |
| 2026-04-20 23:35 | 33.65598 | -118.42672 | 9094 ft | 305 kts | 119° |
| 2026-04-20 23:36 | 33.64662 | -118.40424 | 9473 ft | 307 kts | 120° |
| 2026-04-20 23:36 | 33.63695 | -118.38127 | 9864 ft | 309 kts | 120° |
| 2026-04-20 23:36 | 33.62706 | -118.35801 | 10219 ft | 311 kts | 120° |
| 2026-04-20 23:36 | 33.61714 | -118.33482 | 10570 ft | 313 kts | 120° |
| 2026-04-20 23:37 | 33.60726 | -118.31182 | 10886 ft | 320 kts | 120° |
| 2026-04-20 23:37 | 33.59663 | -118.28722 | 11058 ft | 343 kts | 120° |
| 2026-04-20 23:37 | 33.58543 | -118.26130 | 11564 ft | 354 kts | 120° |
| 2026-04-20 23:37 | 33.57406 | -118.23493 | 12279 ft | 358 kts | 120° |
| 2026-04-20 23:38 | 33.56254 | -118.20825 | 12992 ft | 363 kts | 121° |
| 2026-04-20 23:38 | 33.55083 | -118.18118 | 13677 ft | 368 kts | 121° |
| 2026-04-20 23:38 | 33.53896 | -118.15378 | 14326 ft | 373 kts | 121° |
| 2026-04-20 23:38 | 33.52700 | -118.12607 | 14969 ft | 376 kts | 121° |
| 2026-04-20 23:39 | 33.51514 | -118.09848 | 15621 ft | 379 kts | 121° |
| 2026-04-20 23:39 | 33.50301 | -118.07024 | 16273 ft | 383 kts | 121° |
| 2026-04-20 23:39 | 33.49075 | -118.04176 | 16877 ft | 387 kts | 121° |
| 2026-04-20 23:39 | 33.47831 | -118.01293 | 17485 ft | 391 kts | 121° |
| 2026-04-20 23:40 | 33.46437 | -117.98500 | 18063 ft | 390 kts | 135° |
| 2026-04-20 23:40 | 33.44452 | -117.96331 | 18657 ft | 385 kts | 145° |
| 2026-04-20 23:40 | 33.42393 | -117.94263 | 19229 ft | 389 kts | 143° |
| 2026-04-20 23:40 | 33.40345 | -117.92137 | 19751 ft | 392 kts | 143° |
| 2026-04-20 23:41 | 33.38309 | -117.89992 | 20295 ft | 395 kts | 142° |
| 2026-04-20 23:41 | 33.36247 | -117.87807 | 20862 ft | 398 kts | 142° |
| 2026-04-20 23:41 | 33.34170 | -117.85601 | 21407 ft | 401 kts | 142° |
| 2026-04-20 23:41 | 33.32080 | -117.83383 | 21933 ft | 404 kts | 142° |
| 2026-04-20 23:42 | 33.29970 | -117.81146 | 22447 ft | 407 kts | 142° |
| 2026-04-20 23:42 | 33.27844 | -117.78894 | 22954 ft | 410 kts | 142° |
| 2026-04-20 23:42 | 33.25704 | -117.76630 | 23464 ft | 413 kts | 142° |
| 2026-04-20 23:42 | 33.23547 | -117.74350 | 23902 ft | 416 kts | 142° |
| 2026-04-20 23:43 | 33.21374 | -117.72054 | 24285 ft | 419 kts | 142° |
| 2026-04-20 23:43 | 33.19211 | -117.69770 | 24655 ft | 423 kts | 142° |
| 2026-04-20 23:43 | 33.17001 | -117.67439 | 25055 ft | 425 kts | 142° |
| 2026-04-20 23:43 | 33.14787 | -117.65080 | 25454 ft | 428 kts | 141° |
| 2026-04-20 23:44 | 33.12591 | -117.62658 | 25837 ft | 432 kts | 140° |
| 2026-04-20 23:44 | 33.10391 | -117.60197 | 26209 ft | 435 kts | 140° |
| 2026-04-20 23:44 | 33.08181 | -117.57716 | 26573 ft | 438 kts | 140° |
| 2026-04-20 23:44 | 33.05953 | -117.55219 | 26927 ft | 441 kts | 140° |
| 2026-04-20 23:45 | 33.03706 | -117.52709 | 27255 ft | 444 kts | 140° |
| 2026-04-20 23:45 | 33.01441 | -117.50187 | 27581 ft | 447 kts | 140° |
| 2026-04-20 23:45 | 32.99159 | -117.47652 | 27914 ft | 450 kts | 140° |
| 2026-04-20 23:45 | 32.96892 | -117.45138 | 28219 ft | 453 kts | 140° |
| 2026-04-20 23:46 | 32.94579 | -117.42576 | 28548 ft | 456 kts | 140° |
| 2026-04-20 23:46 | 32.92252 | -117.40000 | 28865 ft | 458 kts | 140° |
| 2026-04-20 23:46 | 32.89911 | -117.37410 | 29167 ft | 460 kts | 140° |
| 2026-04-20 23:46 | 32.87562 | -117.34813 | 29478 ft | 463 kts | 140° |
| 2026-04-20 23:47 | 32.85192 | -117.32196 | 29774 ft | 466 kts | 140° |
| 2026-04-20 23:47 | 32.82815 | -117.29571 | 30120 ft | 467 kts | 140° |
| 2026-04-20 23:47 | 32.80438 | -117.26949 | 30515 ft | 465 kts | 140° |
| 2026-04-20 23:47 | 32.78103 | -117.24374 | 30948 ft | 463 kts | 141° |
| 2026-04-20 23:48 | 32.75751 | -117.21781 | 31374 ft | 461 kts | 141° |
| 2026-04-20 23:48 | 32.73401 | -117.19195 | 31736 ft | 460 kts | 141° |
| 2026-04-20 23:48 | 32.71055 | -117.16615 | 32043 ft | 460 kts | 141° |
| 2026-04-20 23:48 | 32.68706 | -117.14035 | 32369 ft | 460 kts | 141° |
| 2026-04-20 23:49 | 32.66362 | -117.11453 | 32685 ft | 460 kts | 140° |
| 2026-04-20 23:49 | 32.64122 | -117.08728 | 33052 ft | 461 kts | 136° |
| 2026-04-20 23:49 | 32.61991 | -117.05896 | 33464 ft | 459 kts | 135° |
| 2026-04-20 23:49 | 32.59891 | -117.03051 | 33795 ft | 458 kts | 136° |
| 2026-04-20 23:50 | 32.57774 | -117.00222 | 34061 ft | 458 kts | 136° |
| 2026-04-20 23:50 | 32.55669 | -116.97460 | 34296 ft | 458 kts | 137° |
| 2026-04-20 23:50 | 32.53526 | -116.94676 | 34609 ft | 456 kts | 137° |
| 2026-04-20 23:50 | 32.51378 | -116.91922 | 34913 ft | 454 kts | 137° |
| 2026-04-20 23:51 | 32.49232 | -116.89191 | 35184 ft | 452 kts | 138° |
| 2026-04-20 23:51 | 32.47089 | -116.86471 | 35398 ft | 452 kts | 138° |
| 2026-04-20 23:51 | 32.44944 | -116.83750 | 35572 ft | 452 kts | 138° |
| 2026-04-20 23:51 | 32.42796 | -116.81022 | 35764 ft | 453 kts | 138° |
| 2026-04-20 23:52 | 32.40654 | -116.78301 | 36017 ft | 451 kts | 138° |
| 2026-04-20 23:52 | 32.36383 | -116.72877 | 36078 ft | 454 kts | 138° |
| 2026-04-20 23:53 | 32.32096 | -116.67434 | 36070 ft | 451 kts | 138° |
| 2026-04-20 23:53 | 32.27830 | -116.62028 | 36059 ft | 448 kts | 138° |
| 2026-04-20 23:54 | 32.23596 | -116.56671 | 36063 ft | 445 kts | 138° |
| 2026-04-20 23:54 | 32.19358 | -116.51321 | 36078 ft | 449 kts | 138° |
| 2026-04-20 23:55 | 32.15080 | -116.45927 | 36078 ft | 455 kts | 138° |
| 2026-04-20 23:55 | 32.10762 | -116.40479 | 36080 ft | 454 kts | 138° |
| 2026-04-20 23:56 | 32.06448 | -116.35043 | 36072 ft | 453 kts | 138° |
| 2026-04-20 23:56 | 32.02138 | -116.29622 | 36072 ft | 453 kts | 138° |
| 2026-04-20 23:57 | 31.97860 | -116.24250 | 36059 ft | 452 kts | 138° |
| 2026-04-20 23:57 | 31.93557 | -116.18855 | 36074 ft | 452 kts | 138° |
| 2026-04-20 23:58 | 31.89251 | -116.13464 | 36059 ft | 452 kts | 138° |
| 2026-04-20 23:58 | 31.84945 | -116.08081 | 36071 ft | 452 kts | 138° |
| 2026-04-20 23:59 | 31.80659 | -116.02729 | 36063 ft | 452 kts | 138° |
| 2026-04-20 23:59 | 31.76343 | -115.97347 | 36053 ft | 452 kts | 138° |
| 2026-04-21 00:00 | 31.72019 | -115.91970 | 36051 ft | 453 kts | 138° |
| 2026-04-21 00:00 | 31.67678 | -115.86598 | 36038 ft | 454 kts | 139° |
| 2026-04-21 00:01 | 31.63331 | -115.81224 | 36049 ft | 454 kts | 139° |
| 2026-04-21 00:01 | 31.59001 | -115.75877 | 36022 ft | 455 kts | 139° |
| 2026-04-21 00:02 | 31.54638 | -115.70494 | 36027 ft | 455 kts | 139° |
| 2026-04-21 00:02 | 31.50276 | -115.65120 | 36025 ft | 455 kts | 139° |
| 2026-04-21 00:03 | 31.45914 | -115.59754 | 36005 ft | 455 kts | 139° |
| 2026-04-21 00:03 | 31.41548 | -115.54391 | 36024 ft | 455 kts | 139° |
| 2026-04-21 00:04 | 31.37209 | -115.49069 | 36004 ft | 455 kts | 139° |
| 2026-04-21 00:04 | 31.32836 | -115.43714 | 36002 ft | 455 kts | 139° |
| 2026-04-21 00:05 | 31.28468 | -115.38370 | 35949 ft | 454 kts | 139° |
| 2026-04-21 00:05 | 31.24100 | -115.33036 | 35963 ft | 454 kts | 139° |
| 2026-04-21 00:06 | 31.19762 | -115.27746 | 35970 ft | 454 kts | 139° |
| 2026-04-21 00:06 | 31.15388 | -115.22419 | 35952 ft | 455 kts | 139° |
| 2026-04-21 00:07 | 31.11004 | -115.17087 | 35960 ft | 455 kts | 139° |
| 2026-04-21 00:07 | 31.06612 | -115.11754 | 35923 ft | 457 kts | 139° |
| 2026-04-21 00:08 | 31.02236 | -115.06447 | 35929 ft | 456 kts | 139° |
| 2026-04-21 00:08 | 30.97837 | -115.01118 | 35942 ft | 457 kts | 139° |
| 2026-04-21 00:09 | 30.93422 | -114.95778 | 35924 ft | 458 kts | 139° |
| 2026-04-21 00:09 | 30.88995 | -114.90432 | 35922 ft | 458 kts | 140° |
| 2026-04-21 00:10 | 30.84564 | -114.85088 | 35923 ft | 459 kts | 140° |
| 2026-04-21 00:10 | 30.80160 | -114.79783 | 35925 ft | 459 kts | 140° |
| 2026-04-21 00:11 | 30.75725 | -114.74445 | 35911 ft | 459 kts | 140° |
| 2026-04-21 00:11 | 30.71284 | -114.69109 | 35912 ft | 459 kts | 140° |
| 2026-04-21 00:12 | 30.66844 | -114.63780 | 35900 ft | 459 kts | 140° |
| 2026-04-21 00:12 | 30.62428 | -114.58487 | 35908 ft | 459 kts | 140° |
| 2026-04-21 00:13 | 30.57981 | -114.53165 | 35907 ft | 459 kts | 140° |
| 2026-04-21 00:13 | 30.53528 | -114.47843 | 35904 ft | 460 kts | 140° |
| 2026-04-21 00:14 | 30.49070 | -114.42523 | 35908 ft | 460 kts | 140° |
| 2026-04-21 00:14 | 30.44635 | -114.37237 | 35897 ft | 460 kts | 140° |
| 2026-04-21 00:15 | 30.40167 | -114.31920 | 35909 ft | 461 kts | 140° |
| 2026-04-21 00:15 | 30.35689 | -114.26598 | 35915 ft | 462 kts | 140° |
| 2026-04-21 00:16 | 30.31199 | -114.21271 | 35916 ft | 463 kts | 140° |
| 2026-04-21 00:16 | 30.26702 | -114.15940 | 35902 ft | 464 kts | 140° |
| 2026-04-21 00:17 | 30.22221 | -114.10637 | 35926 ft | 464 kts | 140° |
| 2026-04-21 00:17 | 30.17706 | -114.05300 | 35915 ft | 465 kts | 140° |
| 2026-04-21 00:18 | 30.13174 | -113.99952 | 35928 ft | 466 kts | 140° |
| 2026-04-21 00:18 | 30.08638 | -113.94606 | 35929 ft | 466 kts | 140° |
| 2026-04-21 00:19 | 30.04120 | -113.89289 | 35914 ft | 467 kts | 141° |
| 2026-04-21 00:19 | 29.99571 | -113.83941 | 35927 ft | 467 kts | 141° |
| 2026-04-21 00:20 | 29.95009 | -113.78587 | 35929 ft | 468 kts | 141° |